Latest Weather Observations for Blackwater Airport

IDQ60801

Issued at 10:02 am EST Saturday 25 April 2015 (issued every 30 minutes, with the page automatically refreshed every 10 minutes)

About weather observations | Map of weather stations | Latest weather observations for QLD | Other Formats
Station Details ID: 035134 Name: BLACKWATER AIRPORT Lat: -23.60 Lon: 148.81 Height: 192.95 m
Data from the previous 72 hours. | See also: Recent months at Blackwater Airport
Date/Time
EST
Temp
°C
App
Temp
°C
Dew
Point
Rel
Hum
%
Delta-T
°C
Wind Press
QNH
hPa
Press
MSL
hPa
Rain
since 9 am
mm
Dir
 
Spd
km/h
Gust
km/h
Spd
kts
Gust
kts
25/10:00am 26.9 25.2 9.7 34 9.6 N 9 15 5 8 1012.5 1011.6 0.0
25/09:30am 25.7 25.0 9.9 37 8.8 N 4 9 2 5 1012.6 1011.7 0.0
25/09:00am 24.3 23.2 9.8 40 8.0 ENE 6 7 3 4 1012.7 1011.8 0.0
25/08:30am 22.0 21.1 11.4 51 6.0 E 7 9 4 5 1012.6 1011.7 0.0
25/08:00am 20.7 20.5 11.9 57 5.0 SE 4 7 2 4 1012.5 1011.6 0.0
25/07:30am 17.4 17.4 13.5 78 2.2 S 6 7 3 4 1012.2 1011.3 0.0
25/07:00am 14.2 13.5 11.9 86 1.3 S 7 9 4 5 1012.0 1011.1 0.0
25/06:30am 12.9 12.0 10.8 87 1.1 S 6 7 3 4 1011.7 1010.8 0.0
25/06:00am 12.9 12.4 10.8 87 1.1 SSE 4 6 2 3 1011.4 1010.5 0.0
25/05:30am 13.1 12.2 10.8 86 1.2 SSE 6 7 3 4 1011.1 1010.2 0.0
25/05:00am 13.2 13.4 10.7 85 1.3 CALM 0 7 0 4 1010.9 1010.0 0.0
25/04:30am 13.4 13.6 10.6 83 1.5 CALM 0 0 0 0 1010.9 1010.0 0.0
25/04:00am 14.4 14.8 11.4 82 1.6 CALM 0 0 0 0 1010.6 1009.7 0.0
25/03:30am 14.0 14.4 11.3 84 1.4 CALM 0 0 0 0 1010.6 1009.7 0.0
25/03:00am 13.9 14.3 11.2 84 1.4 CALM 0 6 0 3 1010.7 1009.8 0.0
25/02:30am 14.2 13.8 11.2 82 1.6 S 4 6 2 3 1010.7 1009.8 0.0
25/02:00am 14.3 14.3 11.1 81 1.7 S 2 6 1 3 1010.7 1009.8 0.0
25/01:30am 15.1 14.2 11.5 79 2.0 S 7 9 4 5 1010.9 1010.0 0.0
25/01:00am 14.8 13.4 11.0 78 2.0 SSW 9 9 5 5 1011.0 1010.1 0.0
25/12:30am 14.9 13.6 11.1 78 2.0 SSW 9 11 5 6 1011.1 1010.2 0.0
25/12:00am 15.1 14.2 11.3 78 2.1 SW 7 7 4 4 1011.3 1010.4 0.0
 
Date/Time
EST
Temp
°C
App
Temp
°C
Dew
Point
Rel
Hum
%
Delta-T
°C
Wind Press
QNH
hPa
Press
MSL
hPa
Rain
since 9 am
mm
Dir
 
Spd
km/h
Gust
km/h
Spd
kts
Gust
kts
24/11:30pm 15.7 15.7 11.3 75 2.4 SW 2 9 1 5 1011.3 1010.4 0.0
24/11:00pm 17.1 17.6 11.6 70 3.0 CALM 0 0 0 0 1011.3 1010.4 0.0
24/10:30pm 18.5 18.9 11.3 63 4.0 CALM 0 0 0 0 1011.3 1010.4 0.0
24/10:00pm 19.3 17.9 10.8 58 4.7 E 9 11 5 6 1011.4 1010.5 0.0
24/09:30pm 20.0 18.2 11.0 56 5.0 E 11 13 6 7 1011.3 1010.4 0.0
24/09:00pm 19.5 18.1 10.8 57 4.8 ESE 9 11 5 6 1011.3 1010.4 0.0
24/08:30pm 18.8 17.8 10.9 60 4.3 ESE 7 9 4 5 1011.1 1010.2 0.0
24/08:00pm 19.9 18.4 10.6 55 5.1 SSW 9 9 5 5 1010.8 1009.9 0.0
24/07:30pm 20.7 19.4 9.9 50 5.9 SSW 7 9 4 5 1010.5 1009.6 0.0
24/07:00pm 21.2 19.9 10.1 49 6.1 WSW 7 9 4 5 1010.3 1009.4 0.0
24/06:30pm 22.5 20.7 9.6 44 7.0 W 9 11 5 6 1010.1 1009.2 0.0
24/06:00pm 23.5 21.6 9.1 40 7.8 W 9 11 5 6 1009.9 1009.0 0.0
24/05:30pm 26.4 25.0 9.7 35 9.3 W 7 9 4 5 1009.5 1008.5 0.0
24/05:00pm 27.8 25.2 7.6 28 11.0 W 11 15 6 8 1009.2 1008.2 0.0
24/04:30pm 28.4 25.8 7.6 27 11.3 WSW 11 15 6 8 1009.0 1008.0 0.0
24/04:00pm 28.6 26.0 7.8 27 11.4 SW 11 19 6 10 1008.9 1007.9 0.0
24/03:30pm 28.8 26.4 8.5 28 11.2 W 11 17 6 9 1008.8 1007.8 0.0
24/03:00pm 28.4 25.1 8.1 28 11.1 WSW 15 24 8 13 1009.0 1008.0 0.0
24/02:30pm 28.6 25.4 8.3 28 11.2 W 15 26 8 14 1009.1 1008.1 0.0
24/02:00pm 28.1 24.8 7.9 28 11.0 WNW 15 24 8 13 1009.4 1008.4 0.0
24/01:30pm 28.2 25.9 9.0 30 10.7 W 11 24 6 13 1009.7 1008.8 0.0
24/01:00pm 27.2 24.3 8.1 30 10.4 W 13 20 7 11 1010.2 1009.3 0.0
24/12:30pm 26.7 24.8 9.1 33 9.7 WNW 9 24 5 13 1010.8 1009.9 0.0
24/12:00pm 26.1 23.3 8.6 33 9.6 W 13 20 7 11 1011.4 1010.5 0.0
24/11:30am 25.5 22.8 8.9 35 9.1 WNW 13 19 7 10 1012.1 1011.2 0.0
24/11:00am 25.1 23.2 9.0 36 8.8 WNW 9 15 5 8 1012.4 1011.5 0.0
24/10:30am 24.2 22.6 8.6 37 8.4 SSW 7 13 4 7 1012.9 1012.0 0.0
24/10:00am 23.5 22.2 9.1 40 7.8 SW 6 13 3 7 1013.1 1012.2 0.0
24/09:30am 22.4 22.1 10.2 46 6.7 S 2 7 1 4 1013.2 1012.3 0.0
24/09:00am 20.3 20.3 11.2 56 5.0 SW 2 7 1 4 1013.4 1012.5 0.0
24/08:30am 19.5 18.9 11.8 61 4.3 SSW 6 7 3 4 1013.3 1012.4 0.0
24/08:00am 18.1 17.2 11.2 64 3.8 SW 7 9 4 5 1013.3 1012.4 0.0
24/07:30am 15.0 14.8 11.8 81 1.7 S 4 9 2 5 1013.0 1012.1 0.0
24/07:00am 14.0 13.2 11.7 86 1.2 SSW 7 9 4 5 1013.0 1012.1 0.0
24/06:30am 12.8 11.9 10.7 87 1.1 SW 6 7 3 4 1012.4 1011.5 0.0
24/06:00am 13.0 11.8 10.2 83 1.5 S 7 11 4 6 1011.9 1011.0 0.0
24/05:30am 13.2 11.5 9.8 80 1.8 S 9 9 5 5 1011.7 1010.8 0.0
24/05:00am 14.8 12.8 10.0 73 2.5 SSE 11 13 6 7 1011.4 1010.5 0.0
24/04:30am 13.2 11.7 10.4 83 1.5 SSE 9 11 5 6 1011.1 1010.2 0.0
24/04:00am 13.0 11.8 10.2 83 1.5 SE 7 7 4 4 1011.1 1010.2 0.0
24/03:30am 13.3 11.7 10.1 81 1.7 S 9 13 5 7 1011.2 1010.3 0.0
24/03:00am 13.3 12.1 9.7 79 1.9 SSE 6 9 3 5 1011.4 1010.5 0.0
24/02:30am 13.8 11.7 9.8 77 2.1 S 11 13 6 7 1011.4 1010.5 0.0
24/02:00am 13.1 10.7 9.9 81 1.7 S 13 15 7 8 1011.7 1010.8 0.0
24/01:30am 13.1 10.3 9.9 81 1.7 SSW 15 17 8 9 1011.7 1010.8 0.0
24/01:00am 13.7 11.3 10.1 79 1.9 S 13 15 7 8 1011.7 1010.8 0.0
24/12:30am 13.5 11.2 10.5 82 1.6 SSW 13 15 7 8 1012.1 1011.2 0.0
24/12:00am 14.9 13.7 10.3 74 2.4 S 7 9 4 5 1012.1 1011.2 0.0
 
Date/Time
EST
Temp
°C
App
Temp
°C
Dew
Point
Rel
Hum
%
Delta-T
°C
Wind Press
QNH
hPa
Press
MSL
hPa
Rain
since 9 am
mm
Dir
 
Spd
km/h
Gust
km/h
Spd
kts
Gust
kts
23/11:30pm 14.3 13.2 10.7 79 1.9 SSW 7 9 4 5 1012.4 1011.5 0.0
23/11:00pm 15.2 15.5 11.0 76 2.3 CALM 0 0 0 0 1012.2 1011.3 0.0
23/10:30pm 16.1 15.9 10.6 70 2.9 SSE 2 7 1 4 1012.3 1011.4 0.0
23/10:00pm 15.4 14.3 10.0 70 2.8 SSE 6 9 3 5 1012.4 1011.5 0.0
23/09:30pm 16.3 16.5 10.4 68 3.2 CALM 0 0 0 0 1012.5 1011.6 0.0
23/09:00pm 15.7 15.6 9.4 66 3.3 CALM 0 0 0 0 1012.5 1011.6 0.0
23/08:30pm 16.6 15.8 9.5 63 3.7 S 4 7 2 4 1012.3 1011.4 0.0
23/08:00pm 17.7 16.4 9.8 60 4.2 SSE 7 9 4 5 1012.2 1011.3 0.0
23/07:30pm 16.1 14.1 8.6 61 3.9 S 9 11 5 6 1011.8 1010.9 0.0
23/07:00pm 18.3 15.5 8.6 53 5.1 SSW 13 15 7 8 1011.4 1010.5 0.0
23/06:30pm 18.4 15.8 9.2 55 4.9 SW 13 13 7 7 1011.0 1010.1 0.0
23/06:00pm 20.8 18.3 8.4 45 6.6 SW 11 13 6 7 1010.6 1009.7 0.0
23/05:30pm 23.7 21.4 7.3 35 8.6 WSW 9 11 5 6 1010.4 1009.5 0.0
23/05:00pm 25.5 22.9 6.2 29 10.1 WSW 9 13 5 7 1010.2 1009.3 0.0
23/04:30pm 25.0 22.7 5.7 29 10.0 S 7 13 4 7 1010.1 1009.2 0.0
23/04:00pm 25.8 22.3 5.4 27 10.5 S 13 20 7 11 1010.1 1009.2 0.0
23/03:30pm 25.7 22.9 5.3 27 10.5 SSE 9 15 5 8 1010.1 1009.2 0.0
23/03:00pm 25.9 23.3 6.0 28 10.4 SE 9 19 5 10 1010.2 1009.3 0.0
23/02:30pm 25.9 23.8 6.5 29 10.2 SSE 7 11 4 6 1010.5 1009.6 0.0
23/02:00pm 25.5 21.8 6.2 29 10.1 S 15 24 8 13 1011.1 1010.2 0.0
23/01:30pm 25.4 22.3 7.1 31 9.7 SSE 13 22 7 12 1011.2 1010.3 0.0
23/01:00pm 24.4 21.1 6.6 32 9.3 SSW 13 19 7 10 1012.0 1011.1 0.0
23/12:30pm 24.4 21.4 7.5 34 9.0 SW 13 20 7 11 1012.7 1011.8 0.0
23/12:00pm 23.8 20.8 7.8 36 8.5 S 13 30 7 16 1013.3 1012.4 0.0
23/11:30am 22.9 19.4 7.4 37 8.1 SSW 15 20 8 11 1014.1 1013.1 0.0
23/11:00am 22.3 18.8 7.3 38 7.8 SSE 15 32 8 17 1014.6 1013.7 0.0
23/10:30am 21.9 18.0 7.3 39 7.6 S 17 26 9 14 1015.2 1014.3 0.0
23/10:00am 21.7 17.3 7.5 40 7.4 S 20 28 11 15 1015.4 1014.5 0.0
23/09:30am 21.3 17.4 8.6 44 6.8 S 19 26 10 14 1015.6 1014.7 0.0
23/09:00am 19.8 16.5 8.2 47 6.1 SSE 15 20 8 11 1015.7 1014.8 0.0
23/08:30am 18.6 15.4 8.3 51 5.4 S 15 20 8 11 1015.9 1015.0 0.0
23/08:00am 16.3 13.5 9.9 66 3.4 S 15 19 8 10 1015.7 1014.8 0.0
23/07:30am 14.0 10.8 10.0 77 2.1 SSW 17 20 9 11 1015.6 1014.7 0.0
23/07:00am 11.7 9.1 9.3 85 1.2 SSW 13 15 7 8 1015.1 1014.2 0.0
23/06:30am 10.3 7.1 8.4 88 0.9 SSW 15 17 8 9 1015.0 1014.1 0.0
23/06:00am 10.4 7.5 8.0 85 1.2 SSW 13 15 7 8 1014.7 1013.8 0.0
23/05:30am 10.8 8.3 8.2 84 1.3 SW 11 13 6 7 1014.3 1013.4 0.0
23/05:00am 11.2 9.0 7.9 80 1.6 SW 9 11 5 6 1014.1 1013.1 0.0
23/04:30am 11.5 8.3 8.5 82 1.5 SSW 15 17 8 9 1013.8 1012.9 0.0
23/04:00am 11.4 8.2 8.6 83 1.4 SSW 15 17 8 9 1013.7 1012.8 0.0
23/03:30am 11.9 8.8 8.9 82 1.5 SW 15 17 8 9 1013.7 1012.8 0.0
23/03:00am 11.6 9.7 9.0 84 1.3 SW 9 11 5 6 1013.8 1012.9 0.0
23/02:30am 12.0 11.8 9.0 82 1.5 CALM 0 0 0 0 1013.7 1012.8 0.0
23/02:00am 11.7 9.7 8.6 81 1.6 SSW 9 11 5 6 1014.1 1013.1 0.0
23/01:30am 12.1 9.7 8.8 80 1.7 SSW 11 13 6 7 1014.2 1013.3 0.0
23/01:00am 13.2 11.3 8.9 75 2.2 SSW 9 11 5 6 1014.4 1013.5 0.0
23/12:30am 15.3 12.7 9.2 67 3.2 SSE 13 15 7 8 1014.4 1013.5 0.0
23/12:00am 15.2 13.2 10.2 72 2.6 S 11 17 6 9 1014.6 1013.7 0.0
 
Date/Time
EST
Temp
°C
App
Temp
°C
Dew
Point
Rel
Hum
%
Delta-T
°C
Wind Press
QNH
hPa
Press
MSL
hPa
Rain
since 9 am
mm
Dir
 
Spd
km/h
Gust
km/h
Spd
kts
Gust
kts
22/11:30pm 14.1 12.2 9.1 72 2.6 S 9 13 5 7 1014.6 1013.7 0.0
22/11:00pm 16.0 13.0 9.4 65 3.4 SSE 15 17 8 9 1014.9 1014.0 0.0
22/10:30pm 16.6 13.3 9.5 63 3.7 SSE 17 20 9 11 1015.1 1014.2 0.0
22/10:00pm 14.5 11.2 9.7 73 2.5 S 17 19 9 10 1015.3 1014.4 0.0
22/09:30pm 13.6 10.2 9.1 74 2.3 SSW 17 19 9 10 1015.3 1014.4 0.0
22/09:00pm 14.5 11.7 8.7 68 3.0 S 13 15 7 8 1015.2 1014.3 0.0
22/08:30pm 16.4 13.9 8.4 59 4.1 SSE 11 13 6 7 1015.1 1014.2 0.0
22/08:00pm 17.8 14.9 8.1 53 5.0 SE 13 17 7 9 1014.8 1013.9 0.0
22/07:30pm 18.2 14.5 7.9 51 5.3 SSE 17 19 9 10 1014.4 1013.5 0.0
22/07:00pm 18.5 14.7 7.6 49 5.6 SSE 17 19 9 10 1014.2 1013.3 0.0
22/06:30pm 19.1 15.3 7.5 47 6.0 SSE 17 22 9 12 1013.9 1013.0 0.0
22/06:00pm 18.8 15.5 6.6 45 6.1 S 13 17 7 9 1013.6 1012.7 0.0
22/05:30pm 21.4 17.6 5.7 36 7.9 S 15 19 8 10 1013.3 1012.4 0.0
22/05:00pm 22.8 18.1 5.3 32 8.8 S 19 26 10 14 1013.0 1012.1 0.0
22/04:30pm 23.4 18.8 5.8 32 9.0 SSW 19 28 10 15 1012.9 1012.0 0.0
22/04:00pm 23.6 18.8 5.5 31 9.2 SSW 20 28 11 15 1012.6 1011.7 0.0
22/03:30pm 24.1 19.9 7.3 34 8.9 S 19 28 10 15 1012.5 1011.6 0.0
22/03:00pm 24.0 20.2 7.6 35 8.7 SSW 17 26 9 14 1012.6 1011.7 0.0
22/02:30pm 23.5 19.1 6.7 34 8.7 SSW 19 26 10 14 1012.9 1012.0 0.0
22/02:00pm 23.8 19.7 7.8 36 8.5 SSW 19 30 10 16 1013.4 1012.5 0.0
22/01:30pm 23.2 19.0 8.1 38 8.0 SSW 20 33 11 18 1013.8 1012.9 0.0
22/01:00pm 22.4 18.1 7.0 37 8.0 SSW 19 26 10 14 1014.4 1013.5 0.0
22/12:30pm 22.0 17.7 7.8 40 7.5 SSW 20 30 11 16 1015.0 1014.1 0.0
22/12:00pm 21.6 17.9 8.1 42 7.1 SSW 17 28 9 15 1015.6 1014.7 0.0
22/11:30am 20.9 17.2 7.9 43 6.8 SSW 17 26 9 14 1016.3 1015.4 0.0
22/11:00am 20.3 16.8 8.9 48 6.1 S 17 26 9 14 1016.8 1015.9 0.0
22/10:30am 19.4 14.4 8.1 48 5.9 S 24 32 13 17 1017.3 1016.4 0.0

Other Formats:

Comma delimited format used in spreadsheet applications
http://www.bom.gov.au/fwo/IDQ60801/IDQ60801.94398.axf

JavaScript Object Notation format (JSON) in row-major order
http://www.bom.gov.au/fwo/IDQ60801/IDQ60801.94398.json